createdAt,value
2023-05-20T00:02:12.155Z,6.50
2023-05-20T00:04:40.866Z,6.05
2023-05-20T00:07:08.069Z,6.65
2023-05-20T00:09:34.892Z,6.35
2023-05-20T00:12:02.659Z,6.20
2023-05-20T00:14:29.487Z,6.78
2023-05-20T00:16:56.425Z,5.85
2023-05-20T00:19:23.591Z,6.50
2023-05-20T00:21:50.500Z,6.00
2023-05-20T00:24:17.318Z,7.05
2023-05-20T00:26:44.227Z,6.10
2023-05-20T00:29:11.099Z,6.72
2023-05-20T00:31:37.977Z,6.10
2023-05-20T00:34:04.843Z,6.13
2023-05-20T00:36:31.731Z,6.20
2023-05-20T00:38:59.039Z,6.68
2023-05-20T00:41:26.218Z,5.93
2023-05-20T00:43:56.787Z,6.70
2023-05-20T00:46:28.353Z,6.80
2023-05-20T00:48:55.448Z,6.90
2023-05-20T00:51:22.395Z,6.43
2023-05-20T00:53:49.775Z,6.38
2023-05-20T00:56:16.734Z,6.03
2023-05-20T00:58:43.615Z,6.55
2023-05-20T01:01:10.573Z,6.47
2023-05-20T01:03:38.635Z,6.30
2023-05-20T01:06:05.713Z,5.72
2023-05-20T01:08:34.140Z,6.13
2023-05-20T01:11:08.597Z,6.68
2023-05-20T01:13:43.231Z,5.85
2023-05-20T01:16:11.881Z,6.38
2023-05-20T01:18:42.037Z,6.60
2023-05-20T01:21:13.861Z,6.18
2023-05-20T01:23:41.776Z,6.22
2023-05-20T01:26:10.207Z,6.35
2023-05-20T01:28:39.361Z,6.07
2023-05-20T01:31:14.672Z,6.28
2023-05-20T01:33:42.792Z,6.15
2023-05-20T01:36:10.946Z,5.53
2023-05-20T01:38:39.940Z,5.90
2023-05-20T01:41:07.733Z,6.18
2023-05-20T01:43:35.235Z,6.28
2023-05-20T01:46:02.992Z,6.00
2023-05-20T01:48:29.926Z,5.88
2023-05-20T01:50:56.885Z,6.07
2023-05-20T01:53:23.696Z,5.93
2023-05-20T01:55:50.953Z,5.55
2023-05-20T01:58:17.857Z,6.30
2023-05-20T02:00:44.757Z,6.25
2023-05-20T02:03:11.715Z,6.05
2023-05-20T02:05:38.834Z,6.00
2023-05-20T02:08:06.429Z,5.93
2023-05-20T02:10:33.294Z,5.57
2023-05-20T02:13:00.151Z,5.95
2023-05-20T02:15:26.971Z,5.60
2023-05-20T02:17:53.930Z,6.18
2023-05-20T02:20:20.769Z,5.57
2023-05-20T02:22:47.609Z,5.82
2023-05-20T02:25:14.511Z,5.80
2023-05-20T02:27:41.633Z,5.60
2023-05-20T02:30:09.081Z,5.30
2023-05-20T02:32:36.187Z,5.38
2023-05-20T02:35:03.114Z,5.20
2023-05-20T02:37:29.990Z,5.95
2023-05-20T02:39:56.868Z,6.00
2023-05-20T02:42:23.806Z,5.13
2023-05-20T02:44:50.708Z,5.22
2023-05-20T02:47:17.610Z,5.05
2023-05-20T02:49:44.508Z,5.38
2023-05-20T02:52:11.317Z,5.45
2023-05-20T02:54:38.193Z,5.40
2023-05-20T02:57:05.134Z,4.82
2023-05-20T02:59:32.055Z,5.00
2023-05-20T03:01:59.038Z,5.10
2023-05-20T03:04:27.099Z,5.57
2023-05-20T03:06:54.042Z,5.60
2023-05-20T03:09:20.904Z,5.20
2023-05-20T03:11:48.754Z,4.28
2023-05-20T03:14:15.784Z,4.65
2023-05-20T03:16:42.736Z,5.00
2023-05-20T03:19:09.676Z,4.78
2023-05-20T03:21:36.675Z,4.40
2023-05-20T03:24:03.733Z,4.53
2023-05-20T03:26:30.635Z,4.60
2023-05-20T03:28:57.454Z,4.50
2023-05-20T03:31:24.386Z,4.85
2023-05-20T03:33:51.209Z,4.70
2023-05-20T03:36:18.108Z,4.97
2023-05-20T03:38:44.955Z,4.70
2023-05-20T03:41:11.764Z,4.72
2023-05-20T03:43:38.609Z,4.50
2023-05-20T03:46:05.625Z,4.35
2023-05-20T03:48:32.413Z,4.30
2023-05-20T03:50:59.279Z,4.13
2023-05-20T03:53:26.317Z,3.72
2023-05-20T03:55:53.299Z,4.18
2023-05-20T03:58:23.408Z,4.43
2023-05-20T04:00:50.252Z,4.38
2023-05-20T04:03:17.303Z,4.32
2023-05-20T04:05:44.146Z,4.10
2023-05-20T04:08:13.641Z,4.85
2023-05-20T04:10:43.572Z,4.85
2023-05-20T04:13:11.556Z,3.95
2023-05-20T04:15:39.044Z,4.40
2023-05-20T04:18:06.446Z,4.43
2023-05-20T04:20:33.360Z,4.80
2023-05-20T04:23:00.368Z,5.35
2023-05-20T04:25:27.420Z,4.75
2023-05-20T04:27:54.502Z,4.97
2023-05-20T04:30:22.084Z,5.18
2023-05-20T04:32:50.712Z,4.78
2023-05-20T04:35:18.074Z,4.63
2023-05-20T04:37:47.676Z,4.78
2023-05-20T04:40:15.158Z,4.60
2023-05-20T04:42:42.027Z,4.55
2023-05-20T04:45:09.143Z,4.65
2023-05-20T04:47:38.831Z,5.38
2023-05-20T04:50:11.090Z,4.82
2023-05-20T04:52:39.225Z,4.47
2023-05-20T04:55:09.772Z,4.65
2023-05-20T04:57:39.668Z,4.15
2023-05-20T05:00:07.919Z,4.65
2023-05-20T05:02:35.647Z,4.85
2023-05-20T05:05:02.766Z,4.32
2023-05-20T05:07:29.643Z,4.15
2023-05-20T05:09:56.465Z,4.18
2023-05-20T05:12:23.467Z,4.15
2023-05-20T05:14:50.689Z,4.05
2023-05-20T05:17:17.592Z,4.07
2023-05-20T05:19:44.430Z,4.75
2023-05-20T05:22:11.252Z,4.10
2023-05-20T05:24:38.977Z,3.72
2023-05-20T05:27:06.090Z,4.15
2023-05-20T05:29:33.003Z,3.83
2023-05-20T05:31:59.924Z,3.65
2023-05-20T05:34:26.953Z,4.03
2023-05-20T05:36:53.851Z,3.67
2023-05-20T05:39:20.751Z,3.92
2023-05-20T05:41:47.568Z,3.45
2023-05-20T05:44:15.147Z,3.80
2023-05-20T05:46:42.050Z,4.68
2023-05-20T05:49:08.921Z,4.13
2023-05-20T05:51:38.213Z,3.85
2023-05-20T05:54:05.760Z,4.07
2023-05-20T05:56:32.628Z,3.45
2023-05-20T05:58:59.494Z,4.28
2023-05-20T06:01:26.587Z,4.20
2023-05-20T06:03:53.933Z,3.83
2023-05-20T06:06:20.966Z,2.90
2023-05-20T06:08:47.770Z,3.50
2023-05-20T06:11:14.717Z,3.47
2023-05-20T06:13:41.682Z,3.70
2023-05-20T06:16:08.660Z,3.47
2023-05-20T06:18:35.681Z,3.53
2023-05-20T06:21:03.402Z,3.08
2023-05-20T06:23:30.611Z,3.25
2023-05-20T06:26:01.482Z,3.17
2023-05-20T06:28:28.475Z,3.50
2023-05-20T06:30:56.098Z,2.90
2023-05-20T06:33:27.478Z,2.90
2023-05-20T06:35:59.015Z,3.70
2023-05-20T06:38:25.928Z,3.80
2023-05-20T06:40:52.941Z,3.67
2023-05-20T06:43:19.881Z,3.38
2023-05-20T06:45:46.759Z,3.40
2023-05-20T06:48:13.556Z,3.40
2023-05-20T06:50:40.501Z,3.47
2023-05-20T06:53:07.368Z,3.35
2023-05-20T06:55:34.403Z,3.30
2023-05-20T06:58:01.418Z,3.60
2023-05-20T07:00:28.259Z,3.40
2023-05-20T07:02:55.148Z,4.10
2023-05-20T07:05:22.123Z,3.67
2023-05-20T07:07:48.939Z,3.47
2023-05-20T07:10:15.768Z,3.50
2023-05-20T07:12:42.620Z,3.35
2023-05-20T07:15:09.957Z,3.72
2023-05-20T07:17:36.970Z,4.55
2023-05-20T07:20:04.404Z,3.88
2023-05-20T07:22:31.392Z,3.22
2023-05-20T07:24:59.492Z,3.45
2023-05-20T07:27:26.484Z,3.58
2023-05-20T07:29:53.356Z,3.25
2023-05-20T07:32:20.307Z,3.33
2023-05-20T07:34:47.159Z,3.15
2023-05-20T07:37:14.838Z,3.60
2023-05-20T07:39:41.694Z,3.83
2023-05-20T07:42:08.571Z,3.55
2023-05-20T07:44:35.467Z,3.17
2023-05-20T07:47:03.627Z,3.35
2023-05-20T07:49:30.413Z,3.22
2023-05-20T07:51:57.416Z,3.58
2023-05-20T07:54:24.485Z,3.75
2023-05-20T07:56:51.555Z,2.90
2023-05-20T07:59:18.488Z,3.22
2023-05-20T08:01:45.364Z,3.50
2023-05-20T08:04:12.338Z,3.20
2023-05-20T08:06:39.898Z,2.95
2023-05-20T08:09:07.325Z,2.92
2023-05-20T08:11:34.130Z,3.78
2023-05-20T08:14:02.118Z,3.03
2023-05-20T08:16:29.070Z,3.40
2023-05-20T08:18:56.138Z,3.13
2023-05-20T08:21:23.500Z,3.38
2023-05-20T08:23:50.288Z,2.92
2023-05-20T08:26:17.146Z,2.80
2023-05-20T08:28:44.005Z,2.83
2023-05-20T08:31:10.904Z,2.88
2023-05-20T08:33:37.851Z,3.00
2023-05-20T08:36:04.839Z,3.20
2023-05-20T08:38:31.678Z,3.08
2023-05-20T08:40:58.580Z,3.08
2023-05-20T08:43:26.590Z,2.67
2023-05-20T08:45:53.733Z,2.95
2023-05-20T08:48:23.189Z,2.60
2023-05-20T08:50:53.641Z,3.15
2023-05-20T08:53:22.776Z,2.20
2023-05-20T08:56:03.094Z,2.80
2023-05-20T08:58:33.041Z,2.80
2023-05-20T09:01:00.136Z,2.25
2023-05-20T09:03:27.190Z,2.08
2023-05-20T09:05:54.350Z,2.50
2023-05-20T09:08:28.408Z,2.25
2023-05-20T09:10:55.253Z,2.95
2023-05-20T09:13:24.046Z,2.40
2023-05-20T09:15:51.064Z,2.13
2023-05-20T09:18:18.018Z,2.38
2023-05-20T09:20:48.126Z,2.28
2023-05-20T09:23:14.934Z,2.10
2023-05-20T09:25:42.048Z,2.17
2023-05-20T09:28:09.384Z,2.58
2023-05-20T09:30:36.421Z,2.53
2023-05-20T09:33:05.466Z,2.10
2023-05-20T09:35:37.538Z,1.80
2023-05-20T09:38:08.038Z,2.00
2023-05-20T09:40:37.794Z,2.38
2023-05-20T09:43:08.426Z,2.22
2023-05-20T09:45:35.860Z,2.33
2023-05-20T09:48:05.719Z,2.00
2023-05-20T09:50:32.760Z,2.00
2023-05-20T09:53:03.802Z,2.03
2023-05-20T09:55:31.744Z,2.22
2023-05-20T09:58:03.234Z,1.92
2023-05-20T10:00:30.805Z,2.00
2023-05-20T10:02:58.794Z,2.47
2023-05-20T10:05:58.114Z,1.92
2023-05-20T10:08:36.945Z,2.47
2023-05-20T10:11:44.489Z,1.85
2023-05-20T10:14:42.177Z,1.80
2023-05-20T10:17:30.382Z,2.00
2023-05-20T10:20:01.407Z,2.00
2023-05-20T10:22:29.629Z,2.30
2023-05-20T10:25:00.732Z,1.95
2023-05-20T10:27:27.577Z,2.15
2023-05-20T10:29:57.198Z,1.90
2023-05-20T10:32:31.552Z,1.90
2023-05-20T10:35:05.010Z,2.22
2023-05-20T10:37:50.570Z,2.20
2023-05-20T10:40:19.766Z,2.05
2023-05-20T10:42:48.047Z,1.90
2023-05-20T10:45:28.852Z,2.60
2023-05-20T10:47:57.372Z,2.40
2023-05-20T10:50:36.280Z,2.55
2023-05-20T10:53:13.038Z,1.92
2023-05-20T10:55:53.445Z,2.00
2023-05-20T10:58:23.746Z,2.40
2023-05-20T11:00:54.971Z,2.22
2023-05-20T11:03:26.016Z,2.10
2023-05-20T11:05:52.968Z,2.25
2023-05-20T11:08:27.814Z,2.40
2023-05-20T11:10:57.336Z,2.38
2023-05-20T11:13:25.087Z,2.78
2023-05-20T11:15:52.123Z,1.98
2023-05-20T11:18:19.185Z,2.40
2023-05-20T11:20:47.079Z,2.05
2023-05-20T11:23:15.246Z,2.00
2023-05-20T11:25:42.362Z,2.30
2023-05-20T11:28:15.297Z,2.78
2023-05-20T11:30:45.587Z,2.30
2023-05-20T11:33:13.896Z,2.33
2023-05-20T11:35:49.936Z,1.92
2023-05-20T11:38:17.409Z,2.30
2023-05-20T11:40:51.873Z,1.98
2023-05-20T11:43:19.638Z,2.50
2023-05-20T11:45:52.507Z,1.80
2023-05-20T11:48:19.796Z,2.10
2023-05-20T11:50:48.243Z,2.30
2023-05-20T11:53:17.817Z,2.25
2023-05-20T11:55:46.646Z,2.50
2023-05-20T11:58:17.227Z,2.40
2023-05-20T12:03:17.149Z,1.92
2023-05-20T12:05:44.386Z,2.00
2023-05-20T12:08:11.479Z,2.05
2023-05-20T12:10:38.352Z,1.75
2023-05-20T12:13:08.733Z,1.70
2023-05-20T12:15:39.267Z,1.63
2023-05-20T12:18:06.385Z,2.10
2023-05-20T12:20:37.278Z,2.30
2023-05-20T12:23:04.894Z,2.22
2023-05-20T12:25:31.819Z,2.28
2023-05-20T12:27:59.623Z,2.13
2023-05-20T12:30:26.454Z,1.88
2023-05-20T12:32:53.979Z,1.67
2023-05-20T12:35:40.750Z,1.95
2023-05-20T12:38:08.298Z,1.75
2023-05-20T12:40:36.423Z,2.13
2023-05-20T12:43:04.728Z,1.80
2023-05-20T12:45:31.823Z,2.00
2023-05-20T12:47:59.134Z,1.85
2023-05-20T12:50:26.026Z,1.92
2023-05-20T12:52:53.203Z,2.10
2023-05-20T12:55:20.102Z,2.10
2023-05-20T12:57:48.530Z,2.00
2023-05-20T13:00:16.029Z,2.10
2023-05-20T13:02:43.559Z,2.40
2023-05-20T13:05:11.326Z,2.40
2023-05-20T13:07:38.645Z,1.77
2023-05-20T13:10:06.899Z,2.00
2023-05-20T13:12:34.805Z,1.73
2023-05-20T13:15:01.720Z,1.83
2023-05-20T13:17:28.556Z,1.77
2023-05-20T13:19:55.968Z,1.80
2023-05-20T13:22:23.209Z,1.67
2023-05-20T13:24:50.119Z,1.77
2023-05-20T13:27:16.947Z,1.73
2023-05-20T13:29:43.865Z,2.30
2023-05-20T13:32:10.924Z,1.77
2023-05-20T13:34:38.813Z,1.92
2023-05-20T13:37:06.373Z,1.67
2023-05-20T13:39:33.272Z,1.60
2023-05-20T13:42:00.317Z,1.73
2023-05-20T13:44:27.179Z,1.50
2023-05-20T13:46:54.147Z,1.60
2023-05-20T13:49:21.602Z,1.63
2023-05-20T13:51:48.480Z,1.52
2023-05-20T13:54:15.593Z,1.10
2023-05-20T13:56:42.666Z,1.20
2023-05-20T13:59:09.516Z,1.50
2023-05-20T14:01:39.017Z,1.10
2023-05-20T14:04:07.395Z,1.20
2023-05-20T14:06:34.338Z,1.45
2023-05-20T14:09:03.034Z,2.85
2023-05-20T14:11:29.851Z,1.45
2023-05-20T14:13:56.643Z,1.35
2023-05-20T14:16:23.650Z,1.67
2023-05-20T14:18:50.597Z,1.50
2023-05-20T14:21:17.601Z,1.50
2023-05-20T14:23:45.112Z,1.67
2023-05-20T14:26:11.975Z,1.50
2023-05-20T14:28:39.775Z,1.92
2023-05-20T14:31:08.978Z,1.15
2023-05-20T14:33:36.798Z,1.48
2023-05-20T14:36:04.127Z,1.33
2023-05-20T14:38:31.139Z,1.10
2023-05-20T14:40:58.004Z,1.10
2023-05-20T14:43:24.942Z,0.98
2023-05-20T14:45:52.788Z,0.93
2023-05-20T14:48:19.648Z,1.20
2023-05-20T14:50:48.324Z,1.42
2023-05-20T14:53:17.292Z,1.00
2023-05-20T14:55:44.134Z,1.50
2023-05-20T14:58:11.069Z,1.40
2023-05-20T15:00:38.736Z,1.10
2023-05-20T15:03:05.953Z,1.20
2023-05-20T15:05:32.928Z,1.20
2023-05-20T15:08:00.573Z,1.45
2023-05-20T15:10:27.632Z,1.58
2023-05-20T15:12:54.912Z,1.40
2023-05-20T15:15:21.862Z,1.52
2023-05-20T15:17:48.784Z,2.10
2023-05-20T15:20:15.802Z,2.13
2023-05-20T15:22:45.797Z,1.50
2023-05-20T15:25:12.693Z,1.38
2023-05-20T15:27:41.426Z,1.30
2023-05-20T15:30:09.067Z,1.38
2023-05-20T15:32:36.106Z,1.30
2023-05-20T15:35:04.207Z,1.52
2023-05-20T15:37:31.096Z,1.67
2023-05-20T15:39:58.036Z,1.73
2023-05-20T15:42:25.041Z,1.42
2023-05-20T15:44:51.919Z,1.20
2023-05-20T15:47:18.748Z,1.05
2023-05-20T15:49:45.670Z,1.38
2023-05-20T15:52:14.046Z,1.40
2023-05-20T15:54:41.086Z,1.70
2023-05-20T15:57:10.730Z,1.42
2023-05-20T15:59:37.557Z,1.45
2023-05-20T16:02:04.565Z,1.30
2023-05-20T16:04:32.707Z,1.25
2023-05-20T16:06:59.716Z,2.13
2023-05-20T16:09:26.545Z,1.58
2023-05-20T16:11:53.429Z,1.38
2023-05-20T16:14:20.506Z,1.40
2023-05-20T16:16:47.429Z,1.30
2023-05-20T16:19:14.485Z,1.35
2023-05-20T16:21:41.344Z,1.52
2023-05-20T16:24:08.197Z,1.58
2023-05-20T16:26:35.027Z,1.70
2023-05-20T16:29:01.849Z,1.38
2023-05-20T16:31:28.703Z,1.42
2023-05-20T16:33:56.358Z,1.92
2023-05-20T16:36:23.530Z,1.63
2023-05-20T16:38:50.571Z,1.20
2023-05-20T16:41:17.467Z,1.50
2023-05-20T16:43:44.344Z,1.58
2023-05-20T16:46:12.867Z,1.88
2023-05-20T16:48:40.097Z,1.70
2023-05-20T16:51:06.946Z,1.55
2023-05-20T16:53:33.886Z,1.90
2023-05-20T16:56:00.752Z,1.77
2023-05-20T16:58:27.565Z,2.00
2023-05-20T17:00:55.277Z,1.77
2023-05-20T17:03:22.364Z,1.90
2023-05-20T17:05:49.450Z,1.58
2023-05-20T17:08:16.435Z,2.13
2023-05-20T17:10:43.311Z,2.08
2023-05-20T17:13:10.223Z,2.28
2023-05-20T17:15:37.339Z,2.30
2023-05-20T17:18:04.426Z,2.00
2023-05-20T17:20:31.704Z,1.60
2023-05-20T17:22:58.920Z,1.85
2023-05-20T17:25:26.087Z,1.65
2023-05-20T17:27:52.915Z,1.63
2023-05-20T17:30:19.916Z,1.80
2023-05-20T17:32:46.837Z,1.83
2023-05-20T17:35:13.772Z,2.88
2023-05-20T17:37:40.634Z,3.30
2023-05-20T17:40:08.031Z,2.10
2023-05-20T17:42:34.888Z,1.90
2023-05-20T17:45:01.827Z,1.70
2023-05-20T17:47:28.678Z,2.28
2023-05-20T17:49:56.768Z,2.08
2023-05-20T17:52:23.595Z,1.80
2023-05-20T17:54:50.546Z,1.80
2023-05-20T17:57:17.741Z,1.88
2023-05-20T17:59:45.602Z,2.03
2023-05-20T18:02:12.823Z,2.40
2023-05-20T18:04:39.742Z,2.20
2023-05-20T18:07:07.512Z,2.17
2023-05-20T18:09:34.461Z,1.80
2023-05-20T18:12:01.336Z,1.80
2023-05-20T18:14:28.121Z,1.65
2023-05-20T18:16:54.914Z,2.00
2023-05-20T18:19:21.857Z,1.80
2023-05-20T18:21:48.936Z,2.00
2023-05-20T18:24:16.780Z,2.03
2023-05-20T18:26:43.826Z,1.90
2023-05-20T18:29:12.393Z,1.88
2023-05-20T18:31:40.433Z,2.13
2023-05-20T18:34:09.020Z,2.03
2023-05-20T18:36:35.926Z,2.00
2023-05-20T18:39:02.865Z,1.80
2023-05-20T18:41:43.223Z,1.80
2023-05-20T18:44:15.640Z,1.88
2023-05-20T18:46:42.852Z,2.20
2023-05-20T18:49:12.951Z,2.10
2023-05-20T18:51:40.381Z,2.08
2023-05-20T18:54:07.749Z,2.42
2023-05-20T18:56:34.946Z,2.40
2023-05-20T18:59:01.850Z,2.42
2023-05-20T19:01:28.805Z,2.42
2023-05-20T19:03:55.811Z,2.60
2023-05-20T19:06:22.848Z,2.33
2023-05-20T19:08:49.894Z,2.08
2023-05-20T19:11:17.018Z,2.40
2023-05-20T19:13:43.929Z,2.17
2023-05-20T19:16:11.192Z,2.22
2023-05-20T19:18:38.165Z,2.97
2023-05-20T19:21:05.018Z,2.63
2023-05-20T19:23:32.591Z,2.30
2023-05-20T19:25:59.524Z,2.60
2023-05-20T19:28:26.448Z,2.08
2023-05-20T19:30:53.664Z,2.20
2023-05-20T19:33:20.972Z,2.35
2023-05-20T19:35:48.261Z,2.25
2023-05-20T19:38:15.606Z,2.13
2023-05-20T19:40:44.121Z,2.13
2023-05-20T19:43:11.421Z,2.60
2023-05-20T19:45:38.591Z,2.53
2023-05-20T19:48:06.500Z,2.33
2023-05-20T19:50:34.040Z,2.53
2023-05-20T19:53:03.193Z,2.50
2023-05-20T19:55:30.169Z,2.90
2023-05-20T19:57:57.318Z,2.90
2023-05-20T20:00:24.206Z,3.03
2023-05-20T20:02:51.293Z,3.22
2023-05-20T20:05:18.508Z,2.22
2023-05-20T20:07:45.985Z,2.65
2023-05-20T20:10:12.814Z,3.47
2023-05-20T20:12:39.700Z,4.00
2023-05-20T20:15:07.314Z,3.72
2023-05-20T20:17:34.218Z,4.35
2023-05-20T20:20:01.322Z,4.60
2023-05-20T20:22:28.228Z,4.80
2023-05-20T20:24:55.137Z,4.40
2023-05-20T20:27:23.862Z,5.50
2023-05-20T20:29:51.286Z,4.78
2023-05-20T20:32:18.431Z,5.30
2023-05-20T20:34:46.017Z,4.55
2023-05-20T20:37:15.123Z,5.15
2023-05-20T20:39:42.987Z,4.75
2023-05-20T20:42:10.590Z,4.57
2023-05-20T20:44:37.420Z,4.53
2023-05-20T20:47:05.146Z,4.80
2023-05-20T20:49:32.265Z,4.35
2023-05-20T20:51:59.355Z,4.38
2023-05-20T20:54:26.588Z,4.28
2023-05-20T20:56:56.698Z,4.03
2023-05-20T20:59:26.589Z,4.13
2023-05-20T21:01:54.127Z,4.55
2023-05-20T21:04:21.611Z,4.50
2023-05-20T21:06:48.576Z,4.10
2023-05-20T21:09:15.870Z,4.65
2023-05-20T21:11:43.235Z,4.32
2023-05-20T21:14:10.385Z,4.47
2023-05-20T21:16:37.478Z,4.65
2023-05-20T21:19:04.668Z,4.28
2023-05-20T21:21:31.805Z,4.30
2023-05-20T21:23:58.728Z,4.60
2023-05-20T21:26:26.573Z,4.85
2023-05-20T21:28:53.482Z,4.55
2023-05-20T21:31:20.490Z,4.30
2023-05-20T21:33:47.373Z,4.60
2023-05-20T21:36:14.286Z,4.60
2023-05-20T21:38:41.181Z,4.60
2023-05-20T21:41:08.411Z,4.63
2023-05-20T21:43:36.128Z,4.30
2023-05-20T21:46:03.127Z,4.35
2023-05-20T21:48:30.029Z,4.57
2023-05-20T21:50:56.873Z,4.43
2023-05-20T21:53:23.704Z,4.65
2023-05-20T21:55:50.727Z,4.13
2023-05-20T21:58:17.592Z,3.97
2023-05-20T22:00:45.052Z,3.95
2023-05-20T22:03:13.007Z,3.70
2023-05-20T22:05:40.935Z,3.70
2023-05-20T22:08:08.064Z,4.28
2023-05-20T22:10:36.487Z,4.15
2023-05-20T22:13:03.415Z,3.75
2023-05-20T22:15:31.449Z,4.47
2023-05-20T22:17:58.601Z,3.83
2023-05-20T22:20:25.672Z,4.25
2023-05-20T22:22:52.611Z,3.60
2023-05-20T22:25:19.661Z,3.53
2023-05-20T22:27:47.113Z,4.30
2023-05-20T22:30:14.128Z,3.83
2023-05-20T22:32:41.377Z,4.43
2023-05-20T22:35:09.049Z,4.53
2023-05-20T22:37:35.914Z,3.85
2023-05-20T22:40:04.076Z,4.05
2023-05-20T22:42:30.903Z,3.78
2023-05-20T22:44:57.693Z,3.50
2023-05-20T22:47:24.594Z,3.78
2023-05-20T22:49:51.412Z,3.55
2023-05-20T22:52:18.763Z,3.22
2023-05-20T22:54:45.681Z,3.80
2023-05-20T22:57:12.748Z,3.22
2023-05-20T22:59:40.387Z,3.42
2023-05-20T23:02:08.183Z,2.92
2023-05-20T23:04:35.183Z,2.97
2023-05-20T23:07:02.113Z,2.85
2023-05-20T23:09:29.261Z,2.92
2023-05-20T23:11:56.104Z,3.15
2023-05-20T23:14:23.590Z,2.92
2023-05-20T23:16:50.596Z,2.92
2023-05-20T23:19:17.681Z,3.03
2023-05-20T23:21:44.588Z,3.30
2023-05-20T23:24:12.007Z,3.13
2023-05-20T23:26:39.617Z,2.97
2023-05-20T23:29:06.529Z,3.22
2023-05-20T23:31:33.748Z,2.63
2023-05-20T23:34:01.632Z,2.78
2023-05-20T23:36:35.202Z,2.58
2023-05-20T23:39:03.322Z,2.25
2023-05-20T23:41:30.338Z,2.80
2023-05-20T23:43:57.224Z,2.90
2023-05-20T23:46:24.129Z,2.40
2023-05-20T23:48:51.097Z,2.50
2023-05-20T23:51:18.261Z,2.28
2023-05-20T23:53:45.429Z,2.45
2023-05-20T23:56:12.249Z,2.53
2023-05-20T23:58:39.069Z,2.40
